sensor_id;sensor_type;location;lat;lon;timestamp;P1;durP1;ratioP1;P2;durP2;ratioP2
75064;SDS011;63646;49.110;9.140;2022-12-10T00:01:33;3.22;;;2.00;;
75064;SDS011;63646;49.110;9.140;2022-12-10T00:04:00;2.00;;;1.80;;
75064;SDS011;63646;49.110;9.140;2022-12-10T00:06:27;3.10;;;1.90;;
75064;SDS011;63646;49.110;9.140;2022-12-10T00:08:55;3.45;;;1.92;;
75064;SDS011;63646;49.110;9.140;2022-12-10T00:11:21;2.55;;;2.00;;
75064;SDS011;63646;49.110;9.140;2022-12-10T00:13:48;2.88;;;2.05;;
75064;SDS011;63646;49.110;9.140;2022-12-10T00:16:15;3.33;;;2.03;;
75064;SDS011;63646;49.110;9.140;2022-12-10T00:18:42;3.85;;;2.00;;
75064;SDS011;63646;49.110;9.140;2022-12-10T00:21:12;3.72;;;1.83;;
75064;SDS011;63646;49.110;9.140;2022-12-10T00:23:39;2.83;;;1.83;;
75064;SDS011;63646;49.110;9.140;2022-12-10T00:26:06;3.85;;;1.90;;
75064;SDS011;63646;49.110;9.140;2022-12-10T00:28:33;3.03;;;1.88;;
75064;SDS011;63646;49.110;9.140;2022-12-10T00:31:05;2.85;;;1.95;;
75064;SDS011;63646;49.110;9.140;2022-12-10T00:33:32;3.95;;;2.05;;
75064;SDS011;63646;49.110;9.140;2022-12-10T00:36:02;2.80;;;1.95;;
75064;SDS011;63646;49.110;9.140;2022-12-10T00:38:33;3.35;;;1.83;;
75064;SDS011;63646;49.110;9.140;2022-12-10T00:40:59;3.47;;;1.98;;
75064;SDS011;63646;49.110;9.140;2022-12-10T00:43:24;3.83;;;1.92;;
75064;SDS011;63646;49.110;9.140;2022-12-10T00:45:50;3.08;;;1.80;;
75064;SDS011;63646;49.110;9.140;2022-12-10T00:48:15;3.72;;;2.00;;
75064;SDS011;63646;49.110;9.140;2022-12-10T00:50:40;2.83;;;1.63;;
75064;SDS011;63646;49.110;9.140;2022-12-10T00:53:06;1.90;;;1.50;;
75064;SDS011;63646;49.110;9.140;2022-12-10T00:55:31;2.38;;;1.63;;
75064;SDS011;63646;49.110;9.140;2022-12-10T00:57:56;3.65;;;2.00;;
75064;SDS011;63646;49.110;9.140;2022-12-10T01:00:22;3.87;;;2.00;;
75064;SDS011;63646;49.110;9.140;2022-12-10T01:02:48;2.80;;;1.88;;
75064;SDS011;63646;49.110;9.140;2022-12-10T01:05:13;2.92;;;1.90;;
75064;SDS011;63646;49.110;9.140;2022-12-10T01:07:38;2.85;;;1.77;;
75064;SDS011;63646;49.110;9.140;2022-12-10T01:10:04;4.83;;;2.30;;
75064;SDS011;63646;49.110;9.140;2022-12-10T01:12:29;3.13;;;1.90;;
75064;SDS011;63646;49.110;9.140;2022-12-10T01:14:55;3.03;;;1.80;;
75064;SDS011;63646;49.110;9.140;2022-12-10T01:17:20;2.97;;;1.80;;
75064;SDS011;63646;49.110;9.140;2022-12-10T01:19:46;3.58;;;2.03;;
75064;SDS011;63646;49.110;9.140;2022-12-10T01:22:12;2.38;;;1.90;;
75064;SDS011;63646;49.110;9.140;2022-12-10T01:24:37;2.90;;;1.70;;
75064;SDS011;63646;49.110;9.140;2022-12-10T01:27:03;3.42;;;2.10;;
75064;SDS011;63646;49.110;9.140;2022-12-10T01:29:28;2.42;;;1.88;;
75064;SDS011;63646;49.110;9.140;2022-12-10T01:31:54;2.33;;;1.65;;
75064;SDS011;63646;49.110;9.140;2022-12-10T01:34:21;3.67;;;1.90;;
75064;SDS011;63646;49.110;9.140;2022-12-10T01:36:48;3.05;;;1.92;;
75064;SDS011;63646;49.110;9.140;2022-12-10T01:39:16;3.08;;;2.10;;
75064;SDS011;63646;49.110;9.140;2022-12-10T01:41:52;2.15;;;1.55;;
75064;SDS011;63646;49.110;9.140;2022-12-10T01:46:52;2.57;;;2.20;;
75064;SDS011;63646;49.110;9.140;2022-12-10T01:49:20;3.78;;;1.80;;
75064;SDS011;63646;49.110;9.140;2022-12-10T01:51:48;2.10;;;1.75;;
75064;SDS011;63646;49.110;9.140;2022-12-10T01:54:17;2.38;;;1.70;;
75064;SDS011;63646;49.110;9.140;2022-12-10T01:56:46;2.97;;;1.80;;
75064;SDS011;63646;49.110;9.140;2022-12-10T01:59:16;2.58;;;1.80;;
75064;SDS011;63646;49.110;9.140;2022-12-10T02:07:09;2.58;;;1.70;;
75064;SDS011;63646;49.110;9.140;2022-12-10T02:10:08;3.88;;;2.10;;
75064;SDS011;63646;49.110;9.140;2022-12-10T02:12:51;2.78;;;1.80;;
75064;SDS011;63646;49.110;9.140;2022-12-10T02:15:22;2.47;;;1.80;;
75064;SDS011;63646;49.110;9.140;2022-12-10T02:17:56;2.17;;;1.73;;
75064;SDS011;63646;49.110;9.140;2022-12-10T02:23:28;2.40;;;2.00;;
75064;SDS011;63646;49.110;9.140;2022-12-10T02:26:00;2.83;;;1.88;;
75064;SDS011;63646;49.110;9.140;2022-12-10T02:31:09;3.05;;;1.70;;
75064;SDS011;63646;49.110;9.140;2022-12-10T02:33:38;3.53;;;1.60;;
75064;SDS011;63646;49.110;9.140;2022-12-10T02:36:08;2.42;;;1.75;;
75064;SDS011;63646;49.110;9.140;2022-12-10T02:38:37;2.20;;;1.70;;
75064;SDS011;63646;49.110;9.140;2022-12-10T02:41:07;1.88;;;1.70;;
75064;SDS011;63646;49.110;9.140;2022-12-10T02:43:38;3.50;;;1.80;;
75064;SDS011;63646;49.110;9.140;2022-12-10T02:46:05;3.00;;;1.85;;
75064;SDS011;63646;49.110;9.140;2022-12-10T02:48:31;1.85;;;1.65;;
75064;SDS011;63646;49.110;9.140;2022-12-10T02:50:59;2.40;;;1.85;;
75064;SDS011;63646;49.110;9.140;2022-12-10T02:53:24;5.13;;;1.95;;
75064;SDS011;63646;49.110;9.140;2022-12-10T02:56:14;2.22;;;1.70;;
75064;SDS011;63646;49.110;9.140;2022-12-10T02:58:54;2.00;;;1.65;;
75064;SDS011;63646;49.110;9.140;2022-12-10T03:06:42;1.73;;;1.50;;
75064;SDS011;63646;49.110;9.140;2022-12-10T03:09:17;2.17;;;1.90;;
75064;SDS011;63646;49.110;9.140;2022-12-10T03:11:48;2.90;;;2.00;;
75064;SDS011;63646;49.110;9.140;2022-12-10T03:14:28;2.22;;;1.73;;
75064;SDS011;63646;49.110;9.140;2022-12-10T03:16:56;2.47;;;2.00;;
75064;SDS011;63646;49.110;9.140;2022-12-10T03:19:24;4.18;;;1.73;;
75064;SDS011;63646;49.110;9.140;2022-12-10T03:21:54;2.50;;;1.90;;
75064;SDS011;63646;49.110;9.140;2022-12-10T03:24:21;3.42;;;1.70;;
75064;SDS011;63646;49.110;9.140;2022-12-10T03:26:47;3.38;;;1.85;;
75064;SDS011;63646;49.110;9.140;2022-12-10T03:29:20;2.08;;;1.50;;
75064;SDS011;63646;49.110;9.140;2022-12-10T03:31:50;2.78;;;1.80;;
75064;SDS011;63646;49.110;9.140;2022-12-10T03:34:17;2.05;;;1.80;;
75064;SDS011;63646;49.110;9.140;2022-12-10T03:36:43;2.17;;;1.65;;
75064;SDS011;63646;49.110;9.140;2022-12-10T03:39:09;2.30;;;1.80;;
75064;SDS011;63646;49.110;9.140;2022-12-10T03:41:36;3.25;;;2.00;;
75064;SDS011;63646;49.110;9.140;2022-12-10T03:44:01;2.72;;;1.50;;
75064;SDS011;63646;49.110;9.140;2022-12-10T03:46:27;2.08;;;1.67;;
75064;SDS011;63646;49.110;9.140;2022-12-10T03:48:54;2.50;;;2.00;;
75064;SDS011;63646;49.110;9.140;2022-12-10T03:51:21;2.55;;;1.60;;
75064;SDS011;63646;49.110;9.140;2022-12-10T03:53:47;2.53;;;1.60;;
75064;SDS011;63646;49.110;9.140;2022-12-10T03:56:15;1.63;;;1.52;;
75064;SDS011;63646;49.110;9.140;2022-12-10T03:58:44;2.17;;;1.83;;
75064;SDS011;63646;49.110;9.140;2022-12-10T04:01:10;3.83;;;1.67;;
75064;SDS011;63646;49.110;9.140;2022-12-10T04:03:38;1.95;;;1.70;;
75064;SDS011;63646;49.110;9.140;2022-12-10T04:06:06;2.75;;;1.90;;
75064;SDS011;63646;49.110;9.140;2022-12-10T04:08:35;3.90;;;1.80;;
75064;SDS011;63646;49.110;9.140;2022-12-10T04:11:04;2.53;;;1.70;;
75064;SDS011;63646;49.110;9.140;2022-12-10T04:13:34;3.03;;;2.03;;
75064;SDS011;63646;49.110;9.140;2022-12-10T04:16:20;2.38;;;1.92;;
75064;SDS011;63646;49.110;9.140;2022-12-10T04:18:56;2.58;;;1.80;;
75064;SDS011;63646;49.110;9.140;2022-12-10T04:21:32;2.25;;;1.75;;
75064;SDS011;63646;49.110;9.140;2022-12-10T04:24:19;3.38;;;2.00;;
75064;SDS011;63646;49.110;9.140;2022-12-10T04:27:10;2.10;;;1.70;;
75064;SDS011;63646;49.110;9.140;2022-12-10T04:29:41;2.20;;;1.65;;
75064;SDS011;63646;49.110;9.140;2022-12-10T04:32:06;2.60;;;1.92;;
75064;SDS011;63646;49.110;9.140;2022-12-10T04:34:32;2.53;;;1.90;;
75064;SDS011;63646;49.110;9.140;2022-12-10T04:36:58;2.43;;;1.90;;
75064;SDS011;63646;49.110;9.140;2022-12-10T04:39:25;2.55;;;1.65;;
75064;SDS011;63646;49.110;9.140;2022-12-10T04:41:50;1.80;;;1.70;;
75064;SDS011;63646;49.110;9.140;2022-12-10T04:44:16;1.92;;;1.77;;
75064;SDS011;63646;49.110;9.140;2022-12-10T04:49:08;2.00;;;1.80;;
75064;SDS011;63646;49.110;9.140;2022-12-10T04:51:34;1.90;;;1.40;;
75064;SDS011;63646;49.110;9.140;2022-12-10T04:54:00;3.00;;;1.58;;
75064;SDS011;63646;49.110;9.140;2022-12-10T04:56:25;1.92;;;1.60;;
75064;SDS011;63646;49.110;9.140;2022-12-10T04:58:51;4.93;;;1.98;;
75064;SDS011;63646;49.110;9.140;2022-12-10T05:01:17;1.67;;;1.58;;
75064;SDS011;63646;49.110;9.140;2022-12-10T05:03:43;2.58;;;1.80;;
75064;SDS011;63646;49.110;9.140;2022-12-10T05:06:10;2.53;;;1.75;;
75064;SDS011;63646;49.110;9.140;2022-12-10T05:08:38;1.90;;;1.60;;
75064;SDS011;63646;49.110;9.140;2022-12-10T05:11:05;2.53;;;1.80;;
75064;SDS011;63646;49.110;9.140;2022-12-10T05:13:35;1.75;;;1.60;;
75064;SDS011;63646;49.110;9.140;2022-12-10T05:16:01;3.00;;;1.65;;
75064;SDS011;63646;49.110;9.140;2022-12-10T05:18:28;2.08;;;1.70;;
75064;SDS011;63646;49.110;9.140;2022-12-10T05:20:53;2.88;;;1.65;;
75064;SDS011;63646;49.110;9.140;2022-12-10T05:23:19;2.38;;;1.90;;
75064;SDS011;63646;49.110;9.140;2022-12-10T05:28:33;1.95;;;1.52;;
75064;SDS011;63646;49.110;9.140;2022-12-10T05:31:00;3.10;;;1.90;;
75064;SDS011;63646;49.110;9.140;2022-12-10T05:33:26;1.63;;;1.50;;
75064;SDS011;63646;49.110;9.140;2022-12-10T05:35:53;2.40;;;1.77;;
75064;SDS011;63646;49.110;9.140;2022-12-10T05:38:25;1.98;;;1.75;;
75064;SDS011;63646;49.110;9.140;2022-12-10T05:40:52;1.80;;;1.60;;
75064;SDS011;63646;49.110;9.140;2022-12-10T05:43:17;1.88;;;1.50;;
75064;SDS011;63646;49.110;9.140;2022-12-10T05:45:43;1.80;;;1.70;;
75064;SDS011;63646;49.110;9.140;2022-12-10T05:48:09;1.45;;;1.35;;
75064;SDS011;63646;49.110;9.140;2022-12-10T05:50:36;2.08;;;1.60;;
75064;SDS011;63646;49.110;9.140;2022-12-10T05:53:02;2.50;;;1.80;;
75064;SDS011;63646;49.110;9.140;2022-12-10T05:55:27;2.13;;;1.63;;
75064;SDS011;63646;49.110;9.140;2022-12-10T05:57:54;1.60;;;1.38;;
75064;SDS011;63646;49.110;9.140;2022-12-10T06:00:20;1.85;;;1.65;;
75064;SDS011;63646;49.110;9.140;2022-12-10T06:02:48;1.80;;;1.60;;
75064;SDS011;63646;49.110;9.140;2022-12-10T06:05:16;1.60;;;1.50;;
75064;SDS011;63646;49.110;9.140;2022-12-10T06:07:42;2.53;;;1.80;;
75064;SDS011;63646;49.110;9.140;2022-12-10T06:10:07;2.20;;;1.85;;
75064;SDS011;63646;49.110;9.140;2022-12-10T06:12:33;2.55;;;1.63;;
75064;SDS011;63646;49.110;9.140;2022-12-10T06:14:59;1.58;;;1.48;;
75064;SDS011;63646;49.110;9.140;2022-12-10T06:17:24;2.42;;;1.70;;
75064;SDS011;63646;49.110;9.140;2022-12-10T06:19:49;1.80;;;1.70;;
75064;SDS011;63646;49.110;9.140;2022-12-10T06:22:15;1.83;;;1.70;;
75064;SDS011;63646;49.110;9.140;2022-12-10T06:24:40;1.98;;;1.70;;
75064;SDS011;63646;49.110;9.140;2022-12-10T06:27:06;1.70;;;1.60;;
75064;SDS011;63646;49.110;9.140;2022-12-10T06:29:31;2.20;;;1.48;;
75064;SDS011;63646;49.110;9.140;2022-12-10T06:31:56;3.13;;;1.95;;
75064;SDS011;63646;49.110;9.140;2022-12-10T06:34:22;1.52;;;1.42;;
75064;SDS011;63646;49.110;9.140;2022-12-10T06:36:47;2.55;;;1.60;;
75064;SDS011;63646;49.110;9.140;2022-12-10T06:39:13;3.10;;;1.80;;
75064;SDS011;63646;49.110;9.140;2022-12-10T06:41:38;2.00;;;1.80;;
75064;SDS011;63646;49.110;9.140;2022-12-10T06:44:06;1.70;;;1.60;;
75064;SDS011;63646;49.110;9.140;2022-12-10T06:46:32;3.53;;;1.85;;
75064;SDS011;63646;49.110;9.140;2022-12-10T06:48:58;2.67;;;1.80;;
75064;SDS011;63646;49.110;9.140;2022-12-10T06:51:23;1.75;;;1.50;;
75064;SDS011;63646;49.110;9.140;2022-12-10T06:53:49;2.20;;;1.90;;
75064;SDS011;63646;49.110;9.140;2022-12-10T06:56:15;2.45;;;1.73;;
75064;SDS011;63646;49.110;9.140;2022-12-10T06:58:43;2.55;;;1.80;;
75064;SDS011;63646;49.110;9.140;2022-12-10T07:01:10;1.92;;;1.70;;
75064;SDS011;63646;49.110;9.140;2022-12-10T07:03:37;1.73;;;1.58;;
75064;SDS011;63646;49.110;9.140;2022-12-10T07:06:04;2.17;;;1.75;;
75064;SDS011;63646;49.110;9.140;2022-12-10T07:08:30;2.00;;;1.80;;
75064;SDS011;63646;49.110;9.140;2022-12-10T07:10:56;2.38;;;1.75;;
75064;SDS011;63646;49.110;9.140;2022-12-10T07:13:22;1.73;;;1.63;;
75064;SDS011;63646;49.110;9.140;2022-12-10T07:15:48;2.78;;;1.90;;
75064;SDS011;63646;49.110;9.140;2022-12-10T07:18:14;4.80;;;1.58;;
75064;SDS011;63646;49.110;9.140;2022-12-10T07:20:39;3.03;;;1.92;;
75064;SDS011;63646;49.110;9.140;2022-12-10T07:23:04;3.60;;;1.70;;
75064;SDS011;63646;49.110;9.140;2022-12-10T07:25:30;6.95;;;2.10;;
75064;SDS011;63646;49.110;9.140;2022-12-10T07:27:55;4.60;;;2.08;;
75064;SDS011;63646;49.110;9.140;2022-12-10T07:30:21;8.20;;;2.17;;
75064;SDS011;63646;49.110;9.140;2022-12-10T07:32:46;7.85;;;2.15;;
75064;SDS011;63646;49.110;9.140;2022-12-10T07:35:12;5.03;;;2.30;;
75064;SDS011;63646;49.110;9.140;2022-12-10T07:37:37;5.32;;;1.90;;
75064;SDS011;63646;49.110;9.140;2022-12-10T07:40:02;6.33;;;2.17;;
75064;SDS011;63646;49.110;9.140;2022-12-10T07:42:28;7.25;;;2.53;;
75064;SDS011;63646;49.110;9.140;2022-12-10T07:44:54;8.02;;;2.50;;
75064;SDS011;63646;49.110;9.140;2022-12-10T07:47:19;5.57;;;2.47;;
75064;SDS011;63646;49.110;9.140;2022-12-10T07:49:45;7.30;;;2.40;;
75064;SDS011;63646;49.110;9.140;2022-12-10T07:52:11;6.30;;;2.50;;
75064;SDS011;63646;49.110;9.140;2022-12-10T07:54:36;5.70;;;2.30;;
75064;SDS011;63646;49.110;9.140;2022-12-10T07:57:02;7.25;;;2.40;;
75064;SDS011;63646;49.110;9.140;2022-12-10T07:59:27;8.30;;;2.00;;
75064;SDS011;63646;49.110;9.140;2022-12-10T08:01:52;8.70;;;2.47;;
75064;SDS011;63646;49.110;9.140;2022-12-10T08:04:18;6.82;;;2.33;;
75064;SDS011;63646;49.110;9.140;2022-12-10T08:06:43;8.13;;;2.60;;
75064;SDS011;63646;49.110;9.140;2022-12-10T08:09:09;13.35;;;3.05;;
75064;SDS011;63646;49.110;9.140;2022-12-10T08:11:35;8.32;;;2.60;;
75064;SDS011;63646;49.110;9.140;2022-12-10T08:14:01;10.77;;;2.78;;
75064;SDS011;63646;49.110;9.140;2022-12-10T08:16:27;8.10;;;2.67;;
75064;SDS011;63646;49.110;9.140;2022-12-10T08:18:55;6.35;;;2.63;;
75064;SDS011;63646;49.110;9.140;2022-12-10T08:21:23;6.35;;;2.80;;
75064;SDS011;63646;49.110;9.140;2022-12-10T08:23:50;7.00;;;2.42;;
75064;SDS011;63646;49.110;9.140;2022-12-10T08:26:19;6.68;;;2.33;;
75064;SDS011;63646;49.110;9.140;2022-12-10T08:28:46;8.85;;;2.70;;
75064;SDS011;63646;49.110;9.140;2022-12-10T08:31:12;7.30;;;2.90;;
75064;SDS011;63646;49.110;9.140;2022-12-10T08:33:39;14.65;;;4.18;;
75064;SDS011;63646;49.110;9.140;2022-12-10T08:36:06;12.70;;;3.40;;
75064;SDS011;63646;49.110;9.140;2022-12-10T08:38:33;11.77;;;3.67;;
75064;SDS011;63646;49.110;9.140;2022-12-10T08:40:59;11.05;;;3.40;;
75064;SDS011;63646;49.110;9.140;2022-12-10T08:43:29;14.48;;;3.80;;
75064;SDS011;63646;49.110;9.140;2022-12-10T08:45:57;13.75;;;3.47;;
75064;SDS011;63646;49.110;9.140;2022-12-10T08:48:23;9.02;;;3.67;;
75064;SDS011;63646;49.110;9.140;2022-12-10T08:50:49;11.70;;;3.72;;
75064;SDS011;63646;49.110;9.140;2022-12-10T08:53:14;11.05;;;3.53;;
75064;SDS011;63646;49.110;9.140;2022-12-10T08:55:39;14.95;;;4.13;;
75064;SDS011;63646;49.110;9.140;2022-12-10T08:58:05;9.10;;;3.38;;
75064;SDS011;63646;49.110;9.140;2022-12-10T09:00:31;12.18;;;3.45;;
75064;SDS011;63646;49.110;9.140;2022-12-10T09:02:56;10.38;;;3.47;;
75064;SDS011;63646;49.110;9.140;2022-12-10T09:05:21;9.35;;;3.53;;
75064;SDS011;63646;49.110;9.140;2022-12-10T09:07:47;10.65;;;3.72;;
75064;SDS011;63646;49.110;9.140;2022-12-10T09:10:12;10.02;;;3.35;;
75064;SDS011;63646;49.110;9.140;2022-12-10T09:12:38;9.30;;;3.47;;
75064;SDS011;63646;49.110;9.140;2022-12-10T09:15:04;7.15;;;3.20;;
75064;SDS011;63646;49.110;9.140;2022-12-10T09:17:30;7.00;;;3.08;;
75064;SDS011;63646;49.110;9.140;2022-12-10T09:19:55;6.83;;;3.10;;
75064;SDS011;63646;49.110;9.140;2022-12-10T09:22:21;7.45;;;3.20;;
75064;SDS011;63646;49.110;9.140;2022-12-10T09:24:46;12.20;;;3.70;;
75064;SDS011;63646;49.110;9.140;2022-12-10T09:27:12;7.57;;;2.77;;
75064;SDS011;63646;49.110;9.140;2022-12-10T09:29:37;6.88;;;2.90;;
75064;SDS011;63646;49.110;9.140;2022-12-10T09:32:02;9.90;;;3.28;;
75064;SDS011;63646;49.110;9.140;2022-12-10T09:34:28;8.20;;;3.35;;
75064;SDS011;63646;49.110;9.140;2022-12-10T09:36:53;6.40;;;2.90;;
75064;SDS011;63646;49.110;9.140;2022-12-10T09:39:19;4.45;;;2.67;;
75064;SDS011;63646;49.110;9.140;2022-12-10T09:44:17;9.20;;;3.20;;
75064;SDS011;63646;49.110;9.140;2022-12-10T09:47:02;8.73;;;2.80;;
75064;SDS011;63646;49.110;9.140;2022-12-10T09:52:17;6.65;;;3.28;;
75064;SDS011;63646;49.110;9.140;2022-12-10T09:54:50;6.55;;;3.20;;
75064;SDS011;63646;49.110;9.140;2022-12-10T09:57:22;5.53;;;3.60;;
75064;SDS011;63646;49.110;9.140;2022-12-10T09:59:53;5.47;;;2.75;;
75064;SDS011;63646;49.110;9.140;2022-12-10T10:02:28;9.02;;;3.33;;
75064;SDS011;63646;49.110;9.140;2022-12-10T10:07:33;7.22;;;3.13;;
75064;SDS011;63646;49.110;9.140;2022-12-10T10:10:03;7.10;;;3.33;;
75064;SDS011;63646;49.110;9.140;2022-12-10T10:12:35;9.07;;;3.05;;
75064;SDS011;63646;49.110;9.140;2022-12-10T10:15:12;9.05;;;3.35;;
75064;SDS011;63646;49.110;9.140;2022-12-10T10:17:39;7.35;;;3.33;;
75064;SDS011;63646;49.110;9.140;2022-12-10T10:20:10;9.88;;;3.40;;
75064;SDS011;63646;49.110;9.140;2022-12-10T10:22:36;8.25;;;3.20;;
75064;SDS011;63646;49.110;9.140;2022-12-10T10:25:02;10.88;;;3.40;;
75064;SDS011;63646;49.110;9.140;2022-12-10T10:27:28;8.40;;;3.13;;
75064;SDS011;63646;49.110;9.140;2022-12-10T10:29:56;6.18;;;3.13;;
75064;SDS011;63646;49.110;9.140;2022-12-10T10:32:27;5.38;;;2.95;;
75064;SDS011;63646;49.110;9.140;2022-12-10T10:38:01;7.13;;;3.13;;
75064;SDS011;63646;49.110;9.140;2022-12-10T10:43:02;5.38;;;3.40;;
75064;SDS011;63646;49.110;9.140;2022-12-10T10:45:30;6.85;;;3.08;;
75064;SDS011;63646;49.110;9.140;2022-12-10T10:48:03;7.70;;;3.13;;
75064;SDS011;63646;49.110;9.140;2022-12-10T10:50:29;4.60;;;2.72;;
75064;SDS011;63646;49.110;9.140;2022-12-10T10:52:54;10.90;;;3.17;;
75064;SDS011;63646;49.110;9.140;2022-12-10T10:55:32;6.53;;;2.83;;
75064;SDS011;63646;49.110;9.140;2022-12-10T10:58:00;7.20;;;2.97;;
75064;SDS011;63646;49.110;9.140;2022-12-10T11:00:26;6.70;;;3.20;;
75064;SDS011;63646;49.110;9.140;2022-12-10T11:02:51;6.82;;;3.15;;
75064;SDS011;63646;49.110;9.140;2022-12-10T11:05:24;5.97;;;3.28;;
75064;SDS011;63646;49.110;9.140;2022-12-10T11:07:56;6.10;;;2.88;;
75064;SDS011;63646;49.110;9.140;2022-12-10T11:10:23;5.50;;;2.70;;
75064;SDS011;63646;49.110;9.140;2022-12-10T11:17:52;6.97;;;3.13;;
75064;SDS011;63646;49.110;9.140;2022-12-10T11:22:50;6.82;;;3.30;;
75064;SDS011;63646;49.110;9.140;2022-12-10T11:25:19;7.15;;;2.88;;
75064;SDS011;63646;49.110;9.140;2022-12-10T11:36:42;6.10;;;3.20;;
75064;SDS011;63646;49.110;9.140;2022-12-10T11:42:04;7.70;;;3.30;;
75064;SDS011;63646;49.110;9.140;2022-12-10T11:50:13;5.53;;;2.70;;
75064;SDS011;63646;49.110;9.140;2022-12-10T11:53:03;8.65;;;3.03;;
75064;SDS011;63646;49.110;9.140;2022-12-10T12:01:17;8.45;;;2.58;;
75064;SDS011;63646;49.110;9.140;2022-12-10T12:04:04;8.40;;;2.80;;
75064;SDS011;63646;49.110;9.140;2022-12-10T12:07:02;6.95;;;2.85;;
75064;SDS011;63646;49.110;9.140;2022-12-10T12:09:37;7.85;;;3.00;;
75064;SDS011;63646;49.110;9.140;2022-12-10T12:17:40;7.38;;;2.72;;
75064;SDS011;63646;49.110;9.140;2022-12-10T12:20:14;6.43;;;3.50;;
75064;SDS011;63646;49.110;9.140;2022-12-10T12:22:52;6.60;;;3.00;;
75064;SDS011;63646;49.110;9.140;2022-12-10T12:25:30;5.88;;;2.85;;
75064;SDS011;63646;49.110;9.140;2022-12-10T12:28:04;6.00;;;3.00;;
75064;SDS011;63646;49.110;9.140;2022-12-10T12:30:45;7.57;;;2.83;;
75064;SDS011;63646;49.110;9.140;2022-12-10T12:33:26;5.38;;;2.78;;
75064;SDS011;63646;49.110;9.140;2022-12-10T12:36:20;6.22;;;2.60;;
75064;SDS011;63646;49.110;9.140;2022-12-10T12:44:04;5.97;;;3.15;;
75064;SDS011;63646;49.110;9.140;2022-12-10T12:46:44;6.95;;;3.00;;
75064;SDS011;63646;49.110;9.140;2022-12-10T12:49:34;8.07;;;2.88;;
75064;SDS011;63646;49.110;9.140;2022-12-10T12:52:00;7.93;;;2.70;;
75064;SDS011;63646;49.110;9.140;2022-12-10T12:54:35;8.20;;;3.17;;
75064;SDS011;63646;49.110;9.140;2022-12-10T13:05:32;7.93;;;2.88;;
75064;SDS011;63646;49.110;9.140;2022-12-10T13:10:52;5.35;;;2.88;;
75064;SDS011;63646;49.110;9.140;2022-12-10T13:15:49;8.52;;;3.30;;
75064;SDS011;63646;49.110;9.140;2022-12-10T13:31:17;11.73;;;3.42;;
75064;SDS011;63646;49.110;9.140;2022-12-10T13:33:45;7.45;;;2.65;;
75064;SDS011;63646;49.110;9.140;2022-12-10T13:36:20;6.93;;;2.95;;
75064;SDS011;63646;49.110;9.140;2022-12-10T13:38:55;4.47;;;2.70;;
75064;SDS011;63646;49.110;9.140;2022-12-10T13:41:26;6.45;;;2.58;;
75064;SDS011;63646;49.110;9.140;2022-12-10T13:58:04;5.47;;;2.60;;
75064;SDS011;63646;49.110;9.140;2022-12-10T14:08:40;6.15;;;2.30;;
75064;SDS011;63646;49.110;9.140;2022-12-10T14:11:22;4.72;;;2.40;;
75064;SDS011;63646;49.110;9.140;2022-12-10T14:13:53;5.80;;;2.70;;
75064;SDS011;63646;49.110;9.140;2022-12-10T14:16:22;5.47;;;2.63;;
75064;SDS011;63646;49.110;9.140;2022-12-10T14:18:56;5.60;;;2.15;;
75064;SDS011;63646;49.110;9.140;2022-12-10T14:21:25;6.15;;;2.50;;
75064;SDS011;63646;49.110;9.140;2022-12-10T14:23:51;4.05;;;2.40;;
75064;SDS011;63646;49.110;9.140;2022-12-10T14:26:22;5.03;;;2.50;;
75064;SDS011;63646;49.110;9.140;2022-12-10T14:28:59;4.60;;;2.28;;
75064;SDS011;63646;49.110;9.140;2022-12-10T14:31:44;4.05;;;2.60;;
75064;SDS011;63646;49.110;9.140;2022-12-10T14:34:14;4.22;;;2.72;;
75064;SDS011;63646;49.110;9.140;2022-12-10T14:36:49;5.00;;;2.30;;
75064;SDS011;63646;49.110;9.140;2022-12-10T14:39:30;4.95;;;2.42;;
75064;SDS011;63646;49.110;9.140;2022-12-10T14:41:59;4.03;;;2.30;;
75064;SDS011;63646;49.110;9.140;2022-12-10T14:44:27;3.58;;;2.40;;
75064;SDS011;63646;49.110;9.140;2022-12-10T14:47:02;4.18;;;2.50;;
75064;SDS011;63646;49.110;9.140;2022-12-10T14:49:38;4.13;;;2.13;;
75064;SDS011;63646;49.110;9.140;2022-12-10T14:52:16;3.55;;;2.38;;
75064;SDS011;63646;49.110;9.140;2022-12-10T14:54:46;3.83;;;2.47;;
75064;SDS011;63646;49.110;9.140;2022-12-10T14:57:24;3.28;;;2.28;;
75064;SDS011;63646;49.110;9.140;2022-12-10T15:02:38;4.03;;;2.13;;
75064;SDS011;63646;49.110;9.140;2022-12-10T15:05:39;5.93;;;2.40;;
75064;SDS011;63646;49.110;9.140;2022-12-10T15:08:00;6.63;;;2.70;;
75064;SDS011;63646;49.110;9.140;2022-12-10T15:10:38;2.58;;;2.20;;
75064;SDS011;63646;49.110;9.140;2022-12-10T15:13:06;4.57;;;2.30;;
75064;SDS011;63646;49.110;9.140;2022-12-10T15:15:39;5.65;;;2.40;;
75064;SDS011;63646;49.110;9.140;2022-12-10T15:28:40;3.72;;;2.30;;
75064;SDS011;63646;49.110;9.140;2022-12-10T15:31:28;3.78;;;2.10;;
75064;SDS011;63646;49.110;9.140;2022-12-10T15:34:17;3.08;;;2.55;;
75064;SDS011;63646;49.110;9.140;2022-12-10T15:39:27;3.88;;;2.25;;
75064;SDS011;63646;49.110;9.140;2022-12-10T15:44:32;3.63;;;2.45;;
75064;SDS011;63646;49.110;9.140;2022-12-10T15:47:12;2.90;;;1.90;;
75064;SDS011;63646;49.110;9.140;2022-12-10T15:49:44;3.72;;;2.03;;
75064;SDS011;63646;49.110;9.140;2022-12-10T15:52:17;4.85;;;2.00;;
75064;SDS011;63646;49.110;9.140;2022-12-10T15:54:46;3.42;;;2.20;;
75064;SDS011;63646;49.110;9.140;2022-12-10T15:57:20;3.08;;;1.90;;
75064;SDS011;63646;49.110;9.140;2022-12-10T15:59:53;3.63;;;2.00;;
75064;SDS011;63646;49.110;9.140;2022-12-10T16:05:02;2.72;;;2.10;;
75064;SDS011;63646;49.110;9.140;2022-12-10T16:07:35;4.75;;;2.10;;
75064;SDS011;63646;49.110;9.140;2022-12-10T16:10:01;3.33;;;2.15;;
75064;SDS011;63646;49.110;9.140;2022-12-10T16:12:27;4.45;;;2.00;;
75064;SDS011;63646;49.110;9.140;2022-12-10T16:14:53;3.88;;;2.13;;
75064;SDS011;63646;49.110;9.140;2022-12-10T16:17:24;2.70;;;2.20;;
75064;SDS011;63646;49.110;9.140;2022-12-10T16:19:51;3.30;;;2.28;;
75064;SDS011;63646;49.110;9.140;2022-12-10T16:22:16;4.38;;;2.20;;
75064;SDS011;63646;49.110;9.140;2022-12-10T16:24:42;3.53;;;2.10;;
75064;SDS011;63646;49.110;9.140;2022-12-10T16:27:13;2.97;;;2.00;;
75064;SDS011;63646;49.110;9.140;2022-12-10T16:29:40;2.38;;;2.10;;
75064;SDS011;63646;49.110;9.140;2022-12-10T16:32:10;3.00;;;2.20;;
75064;SDS011;63646;49.110;9.140;2022-12-10T16:34:36;3.20;;;1.90;;
75064;SDS011;63646;49.110;9.140;2022-12-10T16:37:02;2.70;;;2.10;;
75064;SDS011;63646;49.110;9.140;2022-12-10T16:39:28;2.80;;;1.95;;
75064;SDS011;63646;49.110;9.140;2022-12-10T16:41:54;4.18;;;2.40;;
75064;SDS011;63646;49.110;9.140;2022-12-10T16:44:20;4.05;;;2.45;;
75064;SDS011;63646;49.110;9.140;2022-12-10T16:46:45;4.70;;;2.20;;
75064;SDS011;63646;49.110;9.140;2022-12-10T16:49:11;2.97;;;1.95;;
75064;SDS011;63646;49.110;9.140;2022-12-10T16:51:37;3.88;;;2.10;;
75064;SDS011;63646;49.110;9.140;2022-12-10T16:54:03;3.50;;;1.95;;
75064;SDS011;63646;49.110;9.140;2022-12-10T16:56:29;3.20;;;2.10;;
75064;SDS011;63646;49.110;9.140;2022-12-10T16:58:55;3.60;;;1.88;;
75064;SDS011;63646;49.110;9.140;2022-12-10T17:01:21;3.85;;;1.90;;
75064;SDS011;63646;49.110;9.140;2022-12-10T17:03:49;4.95;;;2.15;;
75064;SDS011;63646;49.110;9.140;2022-12-10T17:06:16;6.93;;;3.00;;
75064;SDS011;63646;49.110;9.140;2022-12-10T17:08:42;9.15;;;3.47;;
75064;SDS011;63646;49.110;9.140;2022-12-10T17:13:57;5.25;;;2.42;;
75064;SDS011;63646;49.110;9.140;2022-12-10T17:16:23;6.05;;;2.60;;
75064;SDS011;63646;49.110;9.140;2022-12-10T17:18:48;7.43;;;2.30;;
75064;SDS011;63646;49.110;9.140;2022-12-10T17:21:14;5.60;;;2.22;;
75064;SDS011;63646;49.110;9.140;2022-12-10T17:23:39;11.15;;;5.53;;
75064;SDS011;63646;49.110;9.140;2022-12-10T17:26:05;8.15;;;3.90;;
75064;SDS011;63646;49.110;9.140;2022-12-10T17:28:31;7.28;;;3.50;;
75064;SDS011;63646;49.110;9.140;2022-12-10T17:30:57;6.45;;;2.90;;